Juzhno-Kuril'Sk, Russia
Current Conditions -  °F | °C
As of 10:00 PM on Wednesday 22 Oct 2014 (Local Time) from RJCK Reporting Station
Few Clouds Few Clouds  
Wind Chill: 35°   Ceiling: Unl
Heat Index: 39°   Visibility: 6mi
Dew Point: 27°   Wind: 6mph
Humidity: 61%   Direction: 360°N
Pressure: 30.09"   Gusts: NA
Location:  44.02°N, 145.87°E
Report Text: RJCK 221100Z 36005KT 9999 FEW040 04/M03 Q1019
Loading
Personal Weather Stations






























Interactive Weather Map
Tropical Storm Tracking
New forecast layout! Learn more

10-Day Weather Forecast

Advertisements
Track Severe Weather on mobile